createdAt,value
2022-10-26T00:00:47.054Z,51.185833
2022-10-26T00:01:47.178Z,51.185822
2022-10-26T00:02:47.545Z,51.185795
2022-10-26T00:03:47.668Z,51.185780
2022-10-26T00:04:47.045Z,51.185741
2022-10-26T00:05:47.040Z,51.185749
2022-10-26T00:06:47.254Z,51.185772
2022-10-26T00:07:47.056Z,51.185730
2022-10-26T00:08:47.009Z,51.185730
2022-10-26T00:09:47.029Z,51.185795
2022-10-26T00:10:47.017Z,51.185802
2022-10-26T00:11:47.003Z,51.185783
2022-10-26T00:12:47.270Z,51.185760
2022-10-26T00:13:46.969Z,51.185799
2022-10-26T00:14:47.394Z,51.185802
2022-10-26T00:15:46.985Z,51.185783
2022-10-26T00:16:46.957Z,51.185768
2022-10-26T00:17:47.323Z,51.185814
2022-10-26T00:18:46.940Z,51.185810
2022-10-26T00:19:46.929Z,51.185825
2022-10-26T00:20:47.260Z,51.185806
2022-10-26T00:21:46.944Z,51.185848
2022-10-26T00:22:46.925Z,51.185780
2022-10-26T00:23:46.893Z,51.185780
2022-10-26T00:24:46.903Z,51.185791
2022-10-26T00:25:46.942Z,51.185799
2022-10-26T00:26:46.881Z,51.185783
2022-10-26T00:27:47.187Z,51.185806
2022-10-26T00:28:46.908Z,51.185814
2022-10-26T00:29:46.856Z,51.185810
2022-10-26T00:30:46.854Z,51.185810
2022-10-26T00:31:46.860Z,51.185818
2022-10-26T00:32:46.859Z,51.185787
2022-10-26T00:33:46.829Z,51.185802
2022-10-26T00:34:47.696Z,51.185806
2022-10-26T00:35:46.807Z,51.185799
2022-10-26T00:36:46.811Z,51.185791
2022-10-26T00:37:47.215Z,51.185806
2022-10-26T00:38:46.799Z,51.185791
2022-10-26T00:39:46.811Z,51.185787
2022-10-26T00:40:46.868Z,51.185806
2022-10-26T00:41:46.772Z,51.185806
2022-10-26T00:42:47.128Z,51.185764
2022-10-26T00:43:46.755Z,51.185760
2022-10-26T00:44:46.764Z,51.185787
2022-10-26T00:45:46.737Z,51.185780
2022-10-26T00:46:46.758Z,51.185780
2022-10-26T00:47:46.738Z,51.185806
2022-10-26T00:48:46.726Z,51.185802
2022-10-26T00:49:46.721Z,51.185772
2022-10-26T00:50:46.729Z,51.185806
2022-10-26T00:51:46.770Z,51.185799
2022-10-26T00:52:47.153Z,51.185841
2022-10-26T00:53:46.706Z,51.185852
2022-10-26T00:54:46.688Z,51.185833
2022-10-26T00:55:46.672Z,51.185818
2022-10-26T00:56:47.072Z,51.185833
2022-10-26T00:57:46.655Z,51.185810
2022-10-26T00:58:46.658Z,51.185837
2022-10-26T00:59:46.646Z,51.185822
2022-10-26T01:00:46.764Z,51.185844
2022-10-26T01:01:47.191Z,51.185844
2022-10-26T01:02:47.069Z,51.185825
2022-10-26T01:03:46.685Z,51.185806
2022-10-26T01:04:46.641Z,51.185772
2022-10-26T01:05:46.608Z,51.185833
2022-10-26T01:06:46.600Z,51.185860
2022-10-26T01:07:46.819Z,51.185856
2022-10-26T01:08:47.009Z,51.185818
2022-10-26T01:09:46.603Z,51.185745
2022-10-26T01:10:46.560Z,51.185810
2022-10-26T01:11:46.557Z,51.185818
2022-10-26T01:12:46.548Z,51.185772
2022-10-26T01:13:46.551Z,51.185833
2022-10-26T01:14:46.781Z,51.185787
2022-10-26T01:15:46.517Z,51.185787
2022-10-26T01:16:46.533Z,51.185783
2022-10-26T01:17:46.960Z,51.185726
2022-10-26T01:18:46.506Z,51.185764
2022-10-26T01:19:46.514Z,51.185814
2022-10-26T01:20:46.523Z,51.185810
2022-10-26T01:21:46.481Z,51.185802
2022-10-26T01:22:46.481Z,51.185749
2022-10-26T01:23:46.498Z,51.185757
2022-10-26T01:24:46.472Z,51.185760
2022-10-26T01:25:46.475Z,51.185848
2022-10-26T01:26:46.562Z,51.185852
2022-10-26T01:27:46.689Z,51.185837
2022-10-26T01:28:46.466Z,51.185856
2022-10-26T01:29:46.426Z,51.185833
2022-10-26T01:30:46.947Z,51.185802
2022-10-26T01:31:46.447Z,51.185795
2022-10-26T01:32:46.446Z,51.185825
2022-10-26T01:33:46.443Z,51.185734
2022-10-26T01:34:46.442Z,51.185730
2022-10-26T01:35:46.392Z,51.185810
2022-10-26T01:36:47.246Z,51.185772
2022-10-26T01:37:46.656Z,51.185822
2022-10-26T01:38:46.375Z,51.185833
2022-10-26T01:39:46.391Z,51.185734
2022-10-26T01:40:46.403Z,51.185780
2022-10-26T01:41:46.800Z,51.185802
2022-10-26T01:42:46.376Z,51.185722
2022-10-26T01:43:46.350Z,51.185699
2022-10-26T01:44:46.331Z,51.185757
2022-10-26T01:45:46.322Z,51.185757
2022-10-26T01:46:46.315Z,51.185764
2022-10-26T01:47:46.662Z,51.185818
2022-10-26T01:48:46.308Z,51.185829
2022-10-26T01:49:46.291Z,51.185814
2022-10-26T01:50:46.284Z,51.185822
2022-10-26T01:51:46.326Z,51.185799
2022-10-26T01:52:46.271Z,51.185799
2022-10-26T01:53:46.692Z,51.185783
2022-10-26T01:54:46.255Z,51.185810
2022-10-26T01:55:46.292Z,51.185818
2022-10-26T01:56:46.238Z,51.185844
2022-10-26T01:57:46.549Z,51.185844
2022-10-26T01:58:46.267Z,51.185829
2022-10-26T01:59:46.246Z,51.185837
2022-10-26T02:00:46.230Z,51.185875
2022-10-26T02:01:46.307Z,51.185837
2022-10-26T02:02:46.232Z,51.185799
2022-10-26T02:03:46.243Z,51.185799
2022-10-26T02:04:46.201Z,51.185791
2022-10-26T02:05:46.185Z,51.185810
2022-10-26T02:06:46.174Z,51.185825
2022-10-26T02:07:46.348Z,51.185848
2022-10-26T02:08:46.591Z,51.185856
2022-10-26T02:09:46.160Z,51.185871
2022-10-26T02:10:46.137Z,51.185844
2022-10-26T02:11:46.126Z,51.185863
2022-10-26T02:12:46.141Z,51.185844
2022-10-26T02:13:46.136Z,51.185841
2022-10-26T02:14:47.536Z,51.185841
2022-10-26T02:15:46.104Z,51.185810
2022-10-26T02:16:46.092Z,51.185806
2022-10-26T02:17:46.249Z,51.185833
2022-10-26T02:18:46.924Z,51.185825
2022-10-26T02:19:46.093Z,51.185791
2022-10-26T02:20:46.081Z,51.185783
2022-10-26T02:21:46.059Z,51.185791
2022-10-26T02:22:46.079Z,51.185795
2022-10-26T02:23:46.080Z,51.185791
2022-10-26T02:24:46.096Z,51.185772
2022-10-26T02:25:46.131Z,51.185799
2022-10-26T02:26:46.034Z,51.185795
2022-10-26T02:27:46.229Z,51.185814
2022-10-26T02:28:46.072Z,51.185841
2022-10-26T02:29:46.030Z,51.185856
2022-10-26T02:30:46.027Z,51.185841
2022-10-26T02:31:46.020Z,51.185825
2022-10-26T02:32:45.999Z,51.185795
2022-10-26T02:33:46.023Z,51.185799
2022-10-26T02:34:45.976Z,51.185791
2022-10-26T02:35:45.958Z,51.185795
2022-10-26T02:36:45.962Z,51.185802
2022-10-26T02:37:46.017Z,51.185841
2022-10-26T02:38:45.942Z,51.185833
2022-10-26T02:39:45.947Z,51.185829
2022-10-26T02:40:45.955Z,51.185860
2022-10-26T02:41:45.937Z,51.185860
2022-10-26T02:42:45.901Z,51.185863
2022-10-26T02:43:45.911Z,51.185860
2022-10-26T02:44:45.917Z,51.185844
2022-10-26T02:45:45.906Z,51.185829
2022-10-26T02:46:45.890Z,51.185902
2022-10-26T02:47:45.991Z,51.185871
2022-10-26T02:48:46.049Z,51.185780
2022-10-26T02:49:45.884Z,51.185810
2022-10-26T02:50:45.848Z,51.185833
2022-10-26T02:51:45.928Z,51.185898
2022-10-26T02:52:45.956Z,51.185883
2022-10-26T02:53:45.831Z,51.185856
2022-10-26T02:54:45.871Z,51.185890
2022-10-26T02:55:45.826Z,51.185806
2022-10-26T02:56:45.848Z,51.185898
2022-10-26T02:57:45.796Z,51.185867
2022-10-26T02:58:46.248Z,51.185886
2022-10-26T02:59:45.789Z,51.185905
2022-10-26T03:00:45.788Z,51.185890
2022-10-26T03:01:45.881Z,51.185867
2022-10-26T03:02:48.415Z,51.185841
2022-10-26T03:03:45.839Z,51.185898
2022-10-26T03:04:45.744Z,51.185883
2022-10-26T03:05:45.744Z,51.185905
2022-10-26T03:06:46.754Z,51.185883
2022-10-26T03:07:45.724Z,51.185825
2022-10-26T03:08:45.851Z,51.185825
2022-10-26T03:09:45.712Z,51.185806
2022-10-26T03:10:45.751Z,51.185841
2022-10-26T03:11:45.797Z,51.185905
2022-10-26T03:12:45.858Z,51.185860
2022-10-26T03:13:45.707Z,51.185871
2022-10-26T03:14:45.683Z,51.185863
2022-10-26T03:15:45.683Z,51.185883
2022-10-26T03:16:45.721Z,51.185852
2022-10-26T03:17:45.765Z,51.185844
2022-10-26T03:18:45.719Z,51.185875
2022-10-26T03:19:45.647Z,51.185879
2022-10-26T03:20:45.643Z,51.185867
2022-10-26T03:21:45.876Z,51.185780
2022-10-26T03:22:45.614Z,51.185829
2022-10-26T03:23:45.652Z,51.185780
2022-10-26T03:24:45.881Z,51.185883
2022-10-26T03:25:45.618Z,51.185856
2022-10-26T03:26:45.606Z,51.185856
2022-10-26T03:27:45.645Z,51.185852
2022-10-26T03:28:45.578Z,51.185886
2022-10-26T03:29:45.580Z,51.185905
2022-10-26T03:30:45.557Z,51.185829
2022-10-26T03:31:45.624Z,51.185848
2022-10-26T03:32:45.652Z,51.185841
2022-10-26T03:33:45.569Z,51.185814
2022-10-26T03:34:45.589Z,51.185795
2022-10-26T03:35:45.527Z,51.185894
2022-10-26T03:36:45.524Z,51.185837
2022-10-26T03:37:45.525Z,51.185848
2022-10-26T03:38:45.571Z,51.185852
2022-10-26T03:39:45.510Z,51.185867
2022-10-26T03:40:45.493Z,51.185898
2022-10-26T03:41:45.754Z,51.185875
2022-10-26T03:42:45.556Z,51.185844
2022-10-26T03:43:45.508Z,51.185814
2022-10-26T03:44:45.523Z,51.185852
2022-10-26T03:45:45.456Z,51.185806
2022-10-26T03:46:45.462Z,51.185822
2022-10-26T03:47:45.435Z,51.185848
2022-10-26T03:48:45.933Z,51.185814
2022-10-26T03:49:45.447Z,51.185764
2022-10-26T03:50:45.411Z,51.185753
2022-10-26T03:51:45.468Z,51.185719
2022-10-26T03:52:45.586Z,51.185768
2022-10-26T03:53:45.426Z,51.185810
2022-10-26T03:54:45.394Z,51.185879
2022-10-26T03:55:45.391Z,51.185829
2022-10-26T03:56:45.371Z,51.185806
2022-10-26T03:57:45.371Z,51.185856
2022-10-26T03:58:45.412Z,51.185852
2022-10-26T03:59:46.192Z,51.185814
2022-10-26T04:00:45.348Z,51.185841
2022-10-26T04:01:45.493Z,51.185810
2022-10-26T04:02:45.328Z,51.185852
2022-10-26T04:03:45.381Z,51.185768
2022-10-26T04:04:45.378Z,51.185822
2022-10-26T04:05:45.339Z,51.185844
2022-10-26T04:07:45.328Z,51.185856
2022-10-26T04:08:45.301Z,51.185905
2022-10-26T04:09:45.314Z,51.185856
2022-10-26T04:10:45.286Z,51.185867
2022-10-26T04:11:45.271Z,51.185814
2022-10-26T04:12:45.280Z,51.185844
2022-10-26T04:13:45.252Z,51.185837
2022-10-26T04:14:45.299Z,51.185844
2022-10-26T04:15:45.412Z,51.185871
2022-10-26T04:16:45.232Z,51.185818
2022-10-26T04:17:45.232Z,51.185791
2022-10-26T04:18:45.230Z,51.185791
2022-10-26T04:19:45.217Z,51.185825
2022-10-26T04:20:45.223Z,51.185814
2022-10-26T04:21:45.229Z,51.185863
2022-10-26T04:22:45.190Z,51.185829
2022-10-26T04:23:45.225Z,51.185841
2022-10-26T04:24:45.201Z,51.185875
2022-10-26T04:25:45.170Z,51.185787
2022-10-26T04:26:45.180Z,51.185791
2022-10-26T04:27:45.213Z,51.185894
2022-10-26T04:28:45.201Z,51.185856
2022-10-26T04:29:45.248Z,51.185863
2022-10-26T04:30:45.146Z,51.185768
2022-10-26T04:31:45.143Z,51.185814
2022-10-26T04:32:45.131Z,51.185856
2022-10-26T04:33:45.115Z,51.185844
2022-10-26T04:34:45.174Z,51.185825
2022-10-26T04:35:45.178Z,51.185818
2022-10-26T04:36:45.094Z,51.185787
2022-10-26T04:37:45.126Z,51.185802
2022-10-26T04:38:45.145Z,51.185795
2022-10-26T04:39:45.138Z,51.185768
2022-10-26T04:40:45.144Z,51.185787
2022-10-26T04:41:45.124Z,51.185799
2022-10-26T04:42:45.072Z,51.185837
2022-10-26T04:43:45.064Z,51.185810
2022-10-26T04:44:45.087Z,51.185818
2022-10-26T04:45:45.028Z,51.185810
2022-10-26T04:46:45.037Z,51.185829
2022-10-26T04:47:45.025Z,51.185780
2022-10-26T04:48:44.995Z,51.185802
2022-10-26T04:49:45.011Z,51.185810
2022-10-26T04:50:45.033Z,51.185806
2022-10-26T04:51:44.996Z,51.185791
2022-10-26T04:52:44.982Z,51.185799
2022-10-26T04:53:44.980Z,51.185806
2022-10-26T04:54:44.978Z,51.185799
2022-10-26T04:55:44.971Z,51.185802
2022-10-26T04:57:44.967Z,51.185776
2022-10-26T04:58:45.056Z,51.185814
2022-10-26T04:59:44.915Z,51.185867
2022-10-26T05:00:44.990Z,51.185867
2022-10-26T05:01:45.094Z,51.185863
2022-10-26T05:02:44.910Z,51.185848
2022-10-26T05:03:45.165Z,51.185814
2022-10-26T05:04:44.881Z,51.185768
2022-10-26T05:05:44.892Z,51.185741
2022-10-26T05:06:44.899Z,51.185753
2022-10-26T05:07:44.861Z,51.185757
2022-10-26T05:08:44.862Z,51.185764
2022-10-26T05:09:44.911Z,51.185780
2022-10-26T05:10:44.891Z,51.185783
2022-10-26T05:11:44.850Z,51.185776
2022-10-26T05:12:44.825Z,51.185787
2022-10-26T05:13:44.814Z,51.185791
2022-10-26T05:14:44.804Z,51.185787
2022-10-26T05:15:44.805Z,51.185760
2022-10-26T05:16:44.828Z,51.185760
2022-10-26T05:17:44.809Z,51.185776
2022-10-26T05:18:44.796Z,51.185802
2022-10-26T05:19:44.905Z,51.185764
2022-10-26T05:20:44.771Z,51.185768
2022-10-26T05:22:44.755Z,51.185814
2022-10-26T05:23:44.760Z,51.185795
2022-10-26T05:24:44.743Z,51.185772
2022-10-26T05:25:44.772Z,51.185776
2022-10-26T05:26:44.736Z,51.185764
2022-10-26T05:27:44.722Z,51.185760
2022-10-26T05:28:44.715Z,51.185738
2022-10-26T05:29:44.714Z,51.185783
2022-10-26T05:30:44.701Z,51.185768
2022-10-26T05:31:44.713Z,51.185799
2022-10-26T05:32:45.299Z,51.185810
2022-10-26T05:33:44.674Z,51.185787
2022-10-26T05:34:45.361Z,51.185776
2022-10-26T05:35:44.673Z,51.185780
2022-10-26T05:36:44.738Z,51.185799
2022-10-26T05:37:44.725Z,51.185818
2022-10-26T05:38:44.654Z,51.185818
2022-10-26T05:39:44.633Z,51.185810
2022-10-26T05:40:44.647Z,51.185757
2022-10-26T05:41:44.646Z,51.185802
2022-10-26T05:42:44.613Z,51.185787
2022-10-26T05:43:44.680Z,51.185825
2022-10-26T05:44:44.613Z,51.185799
2022-10-26T05:45:44.598Z,51.185734
2022-10-26T05:46:44.613Z,51.185760
2022-10-26T05:47:44.625Z,51.185802
2022-10-26T05:48:44.564Z,51.185799
2022-10-26T05:49:44.602Z,51.185810
2022-10-26T05:50:44.560Z,51.185783
2022-10-26T05:51:44.543Z,51.185791
2022-10-26T05:52:44.543Z,51.185741
2022-10-26T05:53:44.526Z,51.185711
2022-10-26T05:54:44.527Z,51.185764
2022-10-26T05:55:44.595Z,51.185772
2022-10-26T05:56:44.530Z,51.185738
2022-10-26T05:57:44.579Z,51.185787
2022-10-26T05:58:45.123Z,51.185757
2022-10-26T05:59:44.506Z,51.185722
2022-10-26T06:00:44.482Z,51.185749
2022-10-26T06:01:44.634Z,51.185760
2022-10-26T06:02:44.587Z,51.185806
2022-10-26T06:03:44.471Z,51.185810
2022-10-26T06:04:44.492Z,51.185806
2022-10-26T06:05:44.455Z,51.185814
2022-10-26T06:06:44.463Z,51.185795
2022-10-26T06:07:44.721Z,51.185780
2022-10-26T06:08:44.540Z,51.185791
2022-10-26T06:09:44.751Z,51.185768
2022-10-26T06:10:44.415Z,51.185818
2022-10-26T06:11:44.479Z,51.185825
2022-10-26T06:12:44.414Z,51.185806
2022-10-26T06:13:44.450Z,51.185825
2022-10-26T06:14:44.396Z,51.185802
2022-10-26T06:15:44.390Z,51.185829
2022-10-26T06:16:44.375Z,51.185883
2022-10-26T06:17:44.380Z,51.185883
2022-10-26T06:18:44.385Z,51.185871
2022-10-26T06:19:44.359Z,51.185871
2022-10-26T06:20:44.350Z,51.185841
2022-10-26T06:21:44.412Z,51.185795
2022-10-26T06:22:44.340Z,51.185764
2022-10-26T06:23:44.328Z,51.185760
2022-10-26T06:24:44.332Z,51.185772
2022-10-26T06:25:44.316Z,51.185787
2022-10-26T06:26:44.315Z,51.185848
2022-10-26T06:27:44.326Z,51.185802
2022-10-26T06:28:47.328Z,51.185814
2022-10-26T06:29:45.328Z,51.185791
2022-10-26T06:30:44.280Z,51.185825
2022-10-26T06:31:44.275Z,51.185745
2022-10-26T06:32:44.264Z,51.185818
2022-10-26T06:33:44.260Z,51.185867
2022-10-26T06:34:44.675Z,51.185810
2022-10-26T06:35:44.260Z,51.185787
2022-10-26T06:36:44.374Z,51.185753
2022-10-26T06:37:44.235Z,51.185837
2022-10-26T06:38:44.291Z,51.185825
2022-10-26T06:39:44.283Z,51.185802
2022-10-26T06:40:44.308Z,51.185787
2022-10-26T06:41:44.199Z,51.185825
2022-10-26T06:42:44.194Z,51.185776
2022-10-26T06:43:45.713Z,51.185783
2022-10-26T06:44:44.203Z,51.185764
2022-10-26T06:45:44.212Z,51.185799
2022-10-26T06:46:44.205Z,51.185825
2022-10-26T06:47:44.242Z,51.185772
2022-10-26T06:48:44.213Z,51.185711
2022-10-26T06:49:44.155Z,51.185787
2022-10-26T06:50:44.128Z,51.185795
2022-10-26T06:51:44.140Z,51.185799
2022-10-26T06:52:44.119Z,51.185753
2022-10-26T06:53:44.133Z,51.185829
2022-10-26T06:54:44.920Z,51.185833
2022-10-26T06:55:44.088Z,51.185841
2022-10-26T06:56:44.120Z,51.185776
2022-10-26T06:57:44.085Z,51.185795
2022-10-26T06:58:44.069Z,51.185848
2022-10-26T06:59:44.108Z,51.185875
2022-10-26T07:00:44.049Z,51.185806
2022-10-26T07:01:44.293Z,51.185772
2022-10-26T07:02:44.195Z,51.185848
2022-10-26T07:03:44.034Z,51.185863
2022-10-26T07:04:44.059Z,51.185818
2022-10-26T07:05:44.043Z,51.185844
2022-10-26T07:06:44.029Z,51.185776
2022-10-26T07:07:45.009Z,51.185791
2022-10-26T07:08:43.995Z,51.185772
2022-10-26T07:09:43.988Z,51.185825
2022-10-26T07:10:43.990Z,51.185856
2022-10-26T07:11:43.997Z,51.185867
2022-10-26T07:12:43.986Z,51.185822
2022-10-26T07:13:43.967Z,51.185680
2022-10-26T07:14:43.978Z,51.185680
2022-10-26T07:15:43.961Z,51.185741
2022-10-26T07:16:43.954Z,51.185810
2022-10-26T07:17:43.972Z,51.185802
2022-10-26T07:18:43.980Z,51.185822
2022-10-26T07:19:43.925Z,51.185856
2022-10-26T07:20:43.919Z,51.185825
2022-10-26T07:21:43.934Z,51.185703
2022-10-26T07:22:43.903Z,51.185669
2022-10-26T07:23:43.893Z,51.185722
2022-10-26T07:24:43.888Z,51.185863
2022-10-26T07:25:43.885Z,51.185905
2022-10-26T07:26:43.975Z,51.185871
2022-10-26T07:27:43.879Z,51.185741
2022-10-26T07:28:43.853Z,51.185741
2022-10-26T07:29:43.851Z,51.185783
2022-10-26T07:30:43.857Z,51.185829
2022-10-26T07:31:43.915Z,51.185795
2022-10-26T07:32:43.832Z,51.185837
2022-10-26T07:33:43.852Z,51.185825
2022-10-26T07:34:43.810Z,51.185833
2022-10-26T07:35:43.818Z,51.185841
2022-10-26T07:36:43.802Z,51.185837
2022-10-26T07:37:43.812Z,51.185837
2022-10-26T07:38:43.781Z,51.185848
2022-10-26T07:39:43.783Z,51.185791
2022-10-26T07:40:43.771Z,51.185844
2022-10-26T07:41:43.768Z,51.185780
2022-10-26T07:42:46.874Z,51.185810
2022-10-26T07:43:43.753Z,51.185822
2022-10-26T07:44:43.846Z,51.185806
2022-10-26T07:45:43.757Z,51.185863
2022-10-26T07:46:43.730Z,51.185863
2022-10-26T07:47:43.733Z,51.185852
2022-10-26T07:48:46.960Z,51.185810
2022-10-26T07:49:43.726Z,51.185818
2022-10-26T07:50:43.709Z,51.185829
2022-10-26T07:51:43.710Z,51.185841
2022-10-26T07:52:43.689Z,51.185825
2022-10-26T07:53:43.695Z,51.185825
2022-10-26T07:54:43.681Z,51.185780
2022-10-26T07:55:43.694Z,51.185802
2022-10-26T07:56:43.670Z,51.185806
2022-10-26T07:57:43.679Z,51.185787
2022-10-26T07:58:43.711Z,51.185795
2022-10-26T07:59:43.651Z,51.185795
2022-10-26T08:00:43.720Z,51.185802
2022-10-26T08:01:43.683Z,51.185795
2022-10-26T08:02:43.629Z,51.185780
2022-10-26T08:03:43.621Z,51.185806
2022-10-26T08:04:43.637Z,51.185848
2022-10-26T08:05:43.784Z,51.185822
2022-10-26T08:06:43.591Z,51.185848
2022-10-26T08:07:43.594Z,51.185829
2022-10-26T08:08:46.549Z,51.185799
2022-10-26T08:09:43.571Z,51.185787
2022-10-26T08:10:43.571Z,51.185795
2022-10-26T08:11:47.716Z,51.185795
2022-10-26T08:12:43.571Z,51.185844
2022-10-26T08:13:43.669Z,51.185787
2022-10-26T08:14:43.539Z,51.185776
2022-10-26T08:15:43.541Z,51.185802
2022-10-26T08:16:43.535Z,51.185810
2022-10-26T08:17:43.516Z,51.185799
2022-10-26T08:18:43.534Z,51.185745
2022-10-26T08:19:43.500Z,51.185734
2022-10-26T08:20:43.526Z,51.185783
2022-10-26T08:21:43.492Z,51.185841
2022-10-26T08:22:43.479Z,51.185829
2022-10-26T08:23:43.476Z,51.185795
2022-10-26T08:24:43.490Z,51.185844
2022-10-26T08:25:43.468Z,51.185825
2022-10-26T08:26:43.452Z,51.185795
2022-10-26T08:27:43.453Z,51.185810
2022-10-26T08:28:43.438Z,51.185833
2022-10-26T08:29:43.429Z,51.185806
2022-10-26T08:30:43.643Z,51.185806
2022-10-26T08:31:43.417Z,51.185799
2022-10-26T08:32:43.420Z,51.185783
2022-10-26T08:33:45.023Z,51.185822
2022-10-26T08:34:43.455Z,51.185841
2022-10-26T08:35:43.408Z,51.185825
2022-10-26T08:36:43.413Z,51.185818
2022-10-26T08:37:43.382Z,51.185791
2022-10-26T08:38:43.379Z,51.185814
2022-10-26T08:39:44.087Z,51.185837
2022-10-26T08:40:43.402Z,51.185825
2022-10-26T08:41:43.360Z,51.185822
2022-10-26T08:42:43.495Z,51.185875
2022-10-26T08:43:43.341Z,51.185772
2022-10-26T08:44:43.811Z,51.185795
2022-10-26T08:45:43.338Z,51.185852
2022-10-26T08:46:43.377Z,51.185879
2022-10-26T08:47:43.321Z,51.185787
2022-10-26T08:48:43.311Z,51.185760
2022-10-26T08:49:43.329Z,51.185715
2022-10-26T08:50:43.304Z,51.185841
2022-10-26T08:51:43.285Z,51.185810
2022-10-26T08:52:43.309Z,51.185822
2022-10-26T08:53:43.293Z,51.185806
2022-10-26T08:54:43.262Z,51.185806
2022-10-26T08:56:44.942Z,51.185814
2022-10-26T08:57:43.247Z,51.185802
2022-10-26T08:58:43.308Z,51.185802
2022-10-26T08:59:43.231Z,51.185810
2022-10-26T09:00:43.305Z,51.185829
2022-10-26T09:01:43.353Z,51.185799
2022-10-26T09:02:43.206Z,51.185814
2022-10-26T09:03:43.209Z,51.185829
2022-10-26T09:04:43.203Z,51.185841
2022-10-26T09:05:43.191Z,51.185791
2022-10-26T09:06:43.199Z,51.185863
2022-10-26T09:07:43.168Z,51.185863
2022-10-26T09:08:43.223Z,51.185852
2022-10-26T09:09:43.165Z,51.185879
2022-10-26T09:10:43.154Z,51.185905
2022-10-26T09:11:43.159Z,51.185844
2022-10-26T09:12:43.141Z,51.185833
2022-10-26T09:13:43.132Z,51.185844
2022-10-26T09:14:43.154Z,51.185844
2022-10-26T09:15:43.568Z,51.185837
2022-10-26T09:16:43.222Z,51.185928
2022-10-26T09:17:43.120Z,51.185894
2022-10-26T09:18:43.149Z,51.185883
2022-10-26T09:19:43.099Z,51.185863
2022-10-26T09:20:43.135Z,51.185886
2022-10-26T09:21:43.099Z,51.185837
2022-10-26T09:22:43.074Z,51.185848
2022-10-26T09:23:43.061Z,51.185829
2022-10-26T09:24:43.080Z,51.185822
2022-10-26T09:25:43.062Z,51.185822
2022-10-26T09:26:43.080Z,51.185822
2022-10-26T09:27:43.057Z,51.185860
2022-10-26T09:28:43.042Z,51.185856
2022-10-26T09:29:43.081Z,51.185825
2022-10-26T09:30:43.788Z,51.185825
2022-10-26T09:31:43.721Z,51.185776
2022-10-26T09:32:43.010Z,51.185860
2022-10-26T09:33:43.003Z,51.185814
2022-10-26T09:34:42.999Z,51.185879
2022-10-26T09:35:42.981Z,51.185867
2022-10-26T09:36:42.973Z,51.185856
2022-10-26T09:37:43.024Z,51.185810
2022-10-26T09:38:42.961Z,51.185863
2022-10-26T09:39:42.967Z,51.185818
2022-10-26T09:40:43.637Z,51.185810
2022-10-26T09:41:42.939Z,51.185822
2022-10-26T09:42:42.937Z,51.185833
2022-10-26T09:43:43.030Z,51.185890
2022-10-26T09:44:42.924Z,51.185947
2022-10-26T09:45:42.972Z,51.185902
2022-10-26T09:46:42.911Z,51.185829
2022-10-26T09:47:42.926Z,51.185677
2022-10-26T09:48:42.888Z,51.185677
2022-10-26T09:49:42.893Z,51.185585
2022-10-26T09:50:42.873Z,51.185738
2022-10-26T09:51:42.889Z,51.185841
2022-10-26T09:52:44.106Z,51.185860
2022-10-26T09:53:42.881Z,51.185753
2022-10-26T09:54:42.865Z,51.185669
2022-10-26T09:55:42.857Z,51.185757
2022-10-26T09:56:42.862Z,51.185848
2022-10-26T09:57:42.870Z,51.185879
2022-10-26T09:58:43.208Z,51.185963
2022-10-26T09:59:42.810Z,51.186001
2022-10-26T10:00:42.806Z,51.185993
2022-10-26T10:01:42.913Z,51.185925
2022-10-26T10:02:42.836Z,51.185825
2022-10-26T10:03:42.792Z,51.185829
2022-10-26T10:04:42.778Z,51.185917
2022-10-26T10:05:51.804Z,51.186020
2022-10-26T10:06:43.766Z,51.185856
2022-10-26T10:07:42.760Z,51.185909
2022-10-26T10:08:44.095Z,51.185818
2022-10-26T10:09:42.747Z,51.185848
2022-10-26T10:10:42.729Z,51.185837
2022-10-26T10:11:42.817Z,51.185806
2022-10-26T10:12:43.010Z,51.185802
2022-10-26T10:13:42.710Z,51.185757
2022-10-26T10:14:42.708Z,51.185780
2022-10-26T10:15:42.707Z,51.185814
2022-10-26T10:16:42.689Z,51.185936
2022-10-26T10:17:43.159Z,51.185860
2022-10-26T10:18:42.687Z,51.185902
2022-10-26T10:19:42.689Z,51.185902
2022-10-26T10:20:42.668Z,51.185898
2022-10-26T10:21:42.651Z,51.185940
2022-10-26T10:22:42.665Z,51.186058
2022-10-26T10:23:42.643Z,51.186115
2022-10-26T10:24:42.631Z,51.186256
2022-10-26T10:25:42.655Z,51.186394
2022-10-26T10:26:42.646Z,51.186394
2022-10-26T10:27:42.615Z,51.186325
2022-10-26T10:28:42.634Z,51.186340
2022-10-26T10:29:42.592Z,51.186207
2022-10-26T10:30:42.584Z,51.186176
2022-10-26T10:31:42.601Z,51.186253
2022-10-26T10:32:42.574Z,51.186115
2022-10-26T10:33:42.562Z,51.186111
2022-10-26T10:34:42.565Z,51.186073
2022-10-26T10:35:42.684Z,51.186085
2022-10-26T10:36:42.567Z,51.185951
2022-10-26T10:37:42.541Z,51.185890
2022-10-26T10:38:42.557Z,51.185909
2022-10-26T10:39:42.530Z,51.185997
2022-10-26T10:40:42.528Z,51.185944
2022-10-26T10:41:42.506Z,51.185951
2022-10-26T10:42:42.521Z,51.185863
2022-10-26T10:43:43.129Z,51.185902
2022-10-26T10:44:42.513Z,51.185791
2022-10-26T10:45:42.493Z,51.185802
2022-10-26T10:46:42.473Z,51.185829
2022-10-26T10:48:42.460Z,51.185829
2022-10-26T10:49:42.517Z,51.185810
2022-10-26T10:50:42.442Z,51.185825
2022-10-26T10:51:42.895Z,51.185860
2022-10-26T10:52:42.431Z,51.185791
2022-10-26T10:53:42.426Z,51.185795
2022-10-26T10:54:42.422Z,51.185886
2022-10-26T10:55:42.473Z,51.185909
2022-10-26T10:56:42.400Z,51.185905
2022-10-26T10:57:42.671Z,51.185852
2022-10-26T10:58:42.385Z,51.185860
2022-10-26T10:59:42.423Z,51.185852
2022-10-26T11:00:42.403Z,51.185818
2022-10-26T11:01:42.473Z,51.185825
2022-10-26T11:02:42.436Z,51.185829
2022-10-26T11:03:42.847Z,51.185841
2022-10-26T11:04:42.350Z,51.185825
2022-10-26T11:05:42.340Z,51.185863
2022-10-26T11:06:42.486Z,51.185837
2022-10-26T11:07:42.756Z,51.185829
2022-10-26T11:08:42.349Z,51.185902
2022-10-26T11:09:42.376Z,51.185867
2022-10-26T11:10:42.306Z,51.185829
2022-10-26T11:11:45.465Z,51.185955
2022-10-26T11:12:42.301Z,51.185947
2022-10-26T11:13:42.305Z,51.185879
2022-10-26T11:14:44.184Z,51.185951
2022-10-26T11:15:42.726Z,51.185913
2022-10-26T11:16:42.287Z,51.185886
2022-10-26T11:17:42.271Z,51.185875
2022-10-26T11:18:42.251Z,51.185837
2022-10-26T11:19:42.278Z,51.185883
2022-10-26T11:20:42.249Z,51.185867
2022-10-26T11:21:42.276Z,51.185871
2022-10-26T11:22:42.232Z,51.185883
2022-10-26T11:23:42.225Z,51.185844
2022-10-26T11:24:42.210Z,51.185715
2022-10-26T11:25:42.938Z,51.185760
2022-10-26T11:26:45.159Z,51.185810
2022-10-26T11:27:42.206Z,51.185863
2022-10-26T11:28:42.204Z,51.185932
2022-10-26T11:29:43.498Z,51.185806